createdAt,value
2023-02-05T00:01:23.135Z,158720.34
2023-02-05T00:04:27.149Z,158703.41
2023-02-05T00:07:31.240Z,158690.50
2023-02-05T00:10:35.556Z,158683.97
2023-02-05T00:13:41.308Z,158670.94
2023-02-05T00:16:45.631Z,158678.75
2023-02-05T00:19:49.881Z,158656.66
2023-02-05T00:22:54.176Z,158633.25
2023-02-05T00:25:58.361Z,158635.81
2023-02-05T00:29:03.030Z,158626.72
2023-02-05T00:32:07.173Z,158624.13
2023-02-05T00:35:11.367Z,158642.31
2023-02-05T00:38:15.729Z,158613.69
2023-02-05T00:41:20.333Z,158609.78
2023-02-05T00:44:24.782Z,158620.22
2023-02-05T00:47:29.122Z,158595.50
2023-02-05T00:50:34.214Z,158592.88
2023-02-05T00:53:38.165Z,158602.00
2023-02-05T00:56:42.692Z,158596.78
2023-02-05T00:59:46.848Z,158578.59
2023-02-05T01:02:51.270Z,158590.28
2023-02-05T01:05:55.706Z,158578.59
2023-02-05T01:08:59.791Z,158598.09
2023-02-05T01:12:04.311Z,158605.91
2023-02-05T01:15:09.720Z,158613.69
2023-02-05T01:18:14.178Z,158617.59
2023-02-05T01:21:18.476Z,158643.63
2023-02-05T01:24:22.422Z,158659.22
2023-02-05T01:27:26.851Z,158656.66
2023-02-05T01:30:31.068Z,158685.28
2023-02-05T01:33:35.206Z,158702.16
2023-02-05T01:36:39.420Z,158724.25
2023-02-05T01:39:43.620Z,158726.88
2023-02-05T01:42:47.870Z,158759.41
2023-02-05T01:46:14.014Z,158719.06
2023-02-05T01:49:28.017Z,158709.94
2023-02-05T01:52:31.879Z,158677.47
2023-02-05T01:55:44.116Z,158652.75
2023-02-05T01:59:06.562Z,158631.94
2023-02-05T02:02:11.791Z,158652.75
2023-02-05T02:05:19.561Z,158660.56
2023-02-05T02:08:23.710Z,158605.91
2023-02-05T02:11:30.280Z,158596.78
2023-02-05T02:14:35.744Z,158548.66
2023-02-05T02:17:43.186Z,158542.19
2023-02-05T02:20:56.706Z,158534.34
2023-02-05T02:24:22.282Z,158561.69
2023-02-05T02:27:44.600Z,158568.16
2023-02-05T02:31:02.091Z,158557.78
2023-02-05T02:34:19.945Z,158575.97
2023-02-05T02:37:30.328Z,158556.47
2023-02-05T02:40:49.779Z,158548.66
2023-02-05T02:43:58.763Z,158553.88
2023-02-05T02:47:13.864Z,158578.59
2023-02-05T02:50:24.927Z,158575.97
2023-02-05T02:53:35.651Z,158573.38
2023-02-05T02:56:41.140Z,158544.75
2023-02-05T02:59:47.596Z,158523.91
2023-02-05T03:02:58.478Z,158518.69
2023-02-05T03:06:05.340Z,158527.84
2023-02-05T03:09:18.225Z,158516.09
2023-02-05T03:12:22.852Z,158544.75
2023-02-05T03:15:26.816Z,158525.22
2023-02-05T03:18:31.628Z,158530.44
2023-02-05T03:21:41.985Z,158572.06
2023-02-05T03:24:46.046Z,158544.75
2023-02-05T03:27:53.094Z,158557.78
2023-02-05T03:31:05.636Z,158523.91
2023-02-05T03:34:53.781Z,158525.22
2023-02-05T03:38:16.120Z,158527.84
2023-02-05T03:41:58.065Z,158484.84
2023-02-05T03:45:20.498Z,158455.00
2023-02-05T03:48:42.964Z,158444.56
2023-02-05T03:52:13.644Z,158468.00
2023-02-05T03:55:23.746Z,158469.25
2023-02-05T03:58:35.746Z,158471.91
2023-02-05T04:01:40.401Z,158501.78
2023-02-05T04:04:44.485Z,158478.38
2023-02-05T04:07:52.804Z,158475.78
2023-02-05T04:10:57.091Z,158441.97
2023-02-05T04:14:01.411Z,158448.47
2023-02-05T04:17:07.590Z,158427.66
2023-02-05T04:20:11.771Z,158419.84
2023-02-05T04:23:15.705Z,158439.38
2023-02-05T04:26:19.926Z,158432.84
2023-02-05T04:29:24.142Z,158438.06
2023-02-05T04:32:28.456Z,158434.19
2023-02-05T04:35:32.907Z,158419.84
2023-02-05T04:38:37.332Z,158418.59
2023-02-05T04:41:41.692Z,158395.16
2023-02-05T04:44:46.029Z,158401.69
2023-02-05T04:47:50.251Z,158382.13
2023-02-05T04:50:54.262Z,158393.88
2023-02-05T04:53:58.253Z,158405.56
2023-02-05T04:57:02.336Z,158383.47
2023-02-05T05:00:07.099Z,158406.84
2023-02-05T05:03:11.229Z,158401.69
2023-02-05T05:06:16.545Z,158396.47
2023-02-05T05:09:24.217Z,158391.25
2023-02-05T05:12:28.111Z,158406.84
2023-02-05T05:15:32.886Z,158400.38
2023-02-05T05:18:38.586Z,158400.38
2023-02-05T05:21:42.675Z,158397.78
2023-02-05T05:24:46.937Z,158384.78
2023-02-05T05:27:51.089Z,158379.56
2023-02-05T05:30:55.398Z,158367.88
2023-02-05T05:33:59.618Z,158375.66
2023-02-05T05:37:03.967Z,158389.94
2023-02-05T05:40:28.194Z,158353.53
2023-02-05T05:43:47.937Z,158330.16
2023-02-05T05:46:51.839Z,158339.28
2023-02-05T05:49:56.121Z,158369.19
2023-02-05T05:53:00.208Z,158378.25
2023-02-05T05:56:04.884Z,158352.28
2023-02-05T05:59:08.651Z,158349.66
2023-02-05T06:02:12.786Z,158337.97
2023-02-05T06:05:17.186Z,158347.06
2023-02-05T06:08:21.627Z,158358.75
2023-02-05T06:11:26.214Z,158343.16
2023-02-05T06:14:30.764Z,158347.06
2023-02-05T06:17:34.749Z,158357.44
2023-02-05T06:20:38.997Z,158360.06
2023-02-05T06:23:43.291Z,158388.66
2023-02-05T06:26:47.754Z,158384.78
2023-02-05T06:29:51.944Z,158415.97
2023-02-05T06:32:56.054Z,158414.63
2023-02-05T06:36:00.320Z,158409.47
2023-02-05T06:39:04.534Z,158414.63
2023-02-05T06:42:08.888Z,158410.75
2023-02-05T06:45:13.186Z,158425.06
2023-02-05T06:48:18.209Z,158417.28
2023-02-05T06:51:22.180Z,158430.28
2023-02-05T06:54:26.649Z,158421.16
2023-02-05T06:57:31.898Z,158422.47
2023-02-05T07:00:36.319Z,158452.34
2023-02-05T07:03:40.329Z,158458.88
2023-02-05T07:06:44.651Z,158448.47
2023-02-05T07:09:48.943Z,158466.69
2023-02-05T07:12:53.179Z,158484.84
2023-02-05T07:15:57.552Z,158492.69
2023-02-05T07:19:01.690Z,158492.69
2023-02-05T07:22:05.991Z,158505.66
2023-02-05T07:25:10.389Z,158510.88
2023-02-05T07:28:14.846Z,158495.28
2023-02-05T07:31:19.682Z,158482.28
2023-02-05T07:34:23.481Z,158504.41
2023-02-05T07:37:27.788Z,158521.31
2023-02-05T07:40:32.149Z,158534.34
2023-02-05T07:43:37.303Z,158561.69
2023-02-05T07:46:41.118Z,158582.50
2023-02-05T07:49:45.208Z,158587.72
2023-02-05T07:52:49.410Z,158621.50
2023-02-05T07:55:53.630Z,158651.44
2023-02-05T07:58:57.855Z,158648.84
2023-02-05T08:02:02.219Z,158698.25
2023-02-05T08:05:06.440Z,158695.63
2023-02-05T08:08:15.096Z,158717.75
2023-02-05T08:11:19.739Z,158741.16
2023-02-05T08:14:24.046Z,158801.06
2023-02-05T08:17:28.615Z,158821.91
2023-02-05T08:20:32.793Z,158876.59
2023-02-05T08:23:36.906Z,158913.03
2023-02-05T08:26:41.803Z,158940.38
2023-02-05T08:29:48.394Z,158932.56
2023-02-05T08:32:52.704Z,158922.13
2023-02-05T08:35:57.884Z,158935.16
2023-02-05T08:39:02.105Z,158909.13
2023-02-05T08:42:06.192Z,158945.59
2023-02-05T08:45:10.460Z,158963.75
2023-02-05T08:48:14.784Z,158970.28
2023-02-05T08:51:20.562Z,158927.34
2023-02-05T08:54:24.909Z,158971.56
2023-02-05T08:57:30.039Z,159008.06
2023-02-05T09:00:38.003Z,158979.41
2023-02-05T09:03:42.058Z,158996.34
2023-02-05T09:06:46.574Z,159049.75
2023-02-05T09:09:52.048Z,159088.75
2023-02-05T09:12:56.240Z,159112.19
2023-02-05T09:16:00.392Z,159074.50
2023-02-05T09:19:05.086Z,159122.66
2023-02-05T09:22:09.436Z,159190.44
2023-02-05T09:25:13.391Z,159110.94
2023-02-05T09:28:17.713Z,159169.56
2023-02-05T09:31:22.069Z,159123.97
2023-02-05T09:34:26.016Z,159130.47
2023-02-05T09:37:30.283Z,159133.06
2023-02-05T09:40:57.366Z,159150.00
2023-02-05T09:44:21.956Z,159169.56
2023-02-05T09:47:33.171Z,159150.00
2023-02-05T09:50:38.026Z,159151.31
2023-02-05T09:53:47.522Z,159195.59
2023-02-05T09:56:55.103Z,159229.47
2023-02-05T09:59:59.548Z,159245.09
2023-02-05T10:03:21.731Z,159273.78
2023-02-05T10:06:41.724Z,159323.25
2023-02-05T10:10:03.163Z,159325.91
2023-02-05T10:14:11.293Z,159353.25
2023-02-05T10:17:29.331Z,159307.63
2023-02-05T10:24:35.711Z,159275.09
2023-02-05T10:28:00.075Z,159307.63
2023-02-05T10:31:07.199Z,159372.75
2023-02-05T10:34:30.565Z,159344.13
2023-02-05T10:37:50.458Z,159322.00
2023-02-05T10:41:00.366Z,159331.06
2023-02-05T10:44:15.034Z,159341.53
2023-02-05T10:47:29.393Z,159338.94
2023-02-05T10:50:49.399Z,159354.59
2023-02-05T10:53:53.305Z,159348.03
2023-02-05T10:56:58.708Z,159350.69
2023-02-05T11:00:08.563Z,159305.03
2023-02-05T11:03:17.210Z,159280.31
2023-02-05T11:06:22.667Z,159286.75
2023-02-05T11:09:26.515Z,159267.28
2023-02-05T11:12:32.530Z,159341.53
2023-02-05T11:15:36.637Z,159351.94
2023-02-05T11:18:44.285Z,159325.91
2023-02-05T11:21:56.298Z,159414.50
2023-02-05T11:25:22.643Z,159411.91
2023-02-05T11:28:28.184Z,159383.22
2023-02-05T11:31:34.743Z,159449.69
2023-02-05T11:34:39.322Z,159401.44
2023-02-05T11:37:44.308Z,159404.09
2023-02-05T11:40:52.984Z,159388.44
2023-02-05T11:44:03.270Z,159437.94
2023-02-05T11:47:08.719Z,159432.78
2023-02-05T11:50:24.336Z,159383.22
2023-02-05T11:53:29.679Z,159400.19
2023-02-05T11:56:33.956Z,159393.63
2023-02-05T11:59:39.474Z,159361.09
2023-02-05T12:02:44.173Z,159394.94
2023-02-05T12:05:52.790Z,159432.78
2023-02-05T12:08:57.147Z,159430.13
2023-02-05T12:12:11.123Z,159427.53
2023-02-05T12:15:19.593Z,159490.09
2023-02-05T12:18:51.208Z,159471.81
2023-02-05T12:22:11.064Z,159423.63
2023-02-05T12:25:52.851Z,159377.97
2023-02-05T12:29:25.305Z,159427.53
2023-02-05T12:32:43.997Z,159417.13
2023-02-05T12:36:21.937Z,159435.38
2023-02-05T12:39:53.101Z,159402.75
2023-02-05T12:43:10.218Z,159414.50
2023-02-05T12:46:20.970Z,159444.44
2023-02-05T12:50:00.155Z,159427.53
2023-02-05T12:53:10.641Z,159434.09
2023-02-05T12:56:23.714Z,159457.50
2023-02-05T12:59:38.970Z,159488.78
2023-02-05T13:02:51.377Z,159507.03
2023-02-05T13:06:01.827Z,159483.59
2023-02-05T13:09:45.571Z,159466.63
2023-02-05T13:12:53.970Z,159486.19
2023-02-05T13:16:08.108Z,159507.03
2023-02-05T13:19:26.671Z,159469.25
2023-02-05T13:22:59.734Z,159444.44
2023-02-05T13:26:23.800Z,159474.47
2023-02-05T13:29:32.150Z,159490.09
2023-02-05T13:32:37.763Z,159480.97
2023-02-05T13:36:23.612Z,159484.88
2023-02-05T13:39:58.763Z,159474.47
2023-02-05T13:43:02.709Z,159469.25
2023-02-05T13:46:37.026Z,159471.81
2023-02-05T13:49:40.827Z,159495.34
2023-02-05T13:52:54.167Z,159445.78
2023-02-05T13:56:32.983Z,159414.50
2023-02-05T13:59:43.648Z,159351.94
2023-02-05T14:02:49.431Z,159359.75
2023-02-05T14:05:53.411Z,159349.34
2023-02-05T14:09:04.815Z,159320.66
2023-02-05T14:12:12.693Z,159336.31
2023-02-05T14:15:16.994Z,159301.13
2023-02-05T14:18:39.938Z,159303.72
2023-02-05T14:22:09.758Z,159312.84
2023-02-05T14:25:36.564Z,159306.31
2023-02-05T14:28:45.764Z,159292.00
2023-02-05T14:31:50.155Z,159255.53
2023-02-05T14:35:00.381Z,159259.44
2023-02-05T14:38:24.467Z,159252.91
2023-02-05T14:41:51.433Z,159247.72
2023-02-05T14:44:57.365Z,159224.22
2023-02-05T14:48:01.826Z,159186.47
2023-02-05T14:51:09.578Z,159179.97
2023-02-05T14:54:17.654Z,159166.94
2023-02-05T14:57:28.883Z,159181.31
2023-02-05T15:00:36.488Z,159181.31
2023-02-05T15:03:41.648Z,159155.22
2023-02-05T15:06:46.206Z,159125.25
2023-02-05T15:10:00.384Z,159126.56
2023-02-05T15:13:16.434Z,159096.56
2023-02-05T15:16:21.547Z,159109.63
2023-02-05T15:19:25.629Z,159097.88
2023-02-05T15:22:40.319Z,159126.56
2023-02-05T15:25:51.795Z,159107.03
2023-02-05T15:29:01.473Z,159091.34
2023-02-05T15:32:16.966Z,159075.78
2023-02-05T15:35:26.174Z,159081.00
2023-02-05T15:38:43.361Z,159060.16
2023-02-05T15:41:48.186Z,159065.38
2023-02-05T15:44:52.642Z,159066.66
2023-02-05T15:48:12.333Z,159065.38
2023-02-05T15:51:42.742Z,159023.69
2023-02-05T15:54:46.875Z,159044.53
2023-02-05T15:57:51.746Z,159018.47
2023-02-05T16:00:56.671Z,159006.75
2023-02-05T16:04:01.271Z,158995.03
2023-02-05T16:07:30.276Z,158974.19
2023-02-05T16:10:35.117Z,158976.78
2023-02-05T16:13:39.925Z,158948.16
2023-02-05T16:17:09.224Z,158961.16
2023-02-05T16:20:39.458Z,158942.97
2023-02-05T16:23:54.948Z,158922.13
2023-02-05T16:27:12.900Z,158920.84
2023-02-05T16:30:27.770Z,158932.56
2023-02-05T16:33:46.078Z,158914.31
2023-02-05T16:36:52.424Z,158903.91
2023-02-05T16:39:58.031Z,158911.72
2023-02-05T16:43:36.299Z,158911.72
2023-02-05T16:46:40.514Z,158894.78
2023-02-05T16:49:47.436Z,158873.94
2023-02-05T16:52:59.235Z,158849.22
2023-02-05T16:56:26.151Z,158871.38
2023-02-05T16:59:52.757Z,158845.31
2023-02-05T17:03:16.169Z,158829.69
2023-02-05T17:06:21.136Z,158807.53
2023-02-05T17:09:39.241Z,158816.66
2023-02-05T17:12:49.317Z,158831.00
2023-02-05T17:15:53.425Z,158780.22
2023-02-05T17:19:03.670Z,158768.53
2023-02-05T17:22:13.555Z,158772.44
2023-02-05T17:25:17.547Z,158763.31
2023-02-05T17:28:27.299Z,158742.47
2023-02-05T17:31:36.502Z,158721.66
2023-02-05T17:34:40.879Z,158721.66
2023-02-05T17:37:45.113Z,158717.75
2023-02-05T17:40:49.614Z,158724.25
2023-02-05T17:43:53.763Z,158752.88
2023-02-05T17:47:02.150Z,158708.63
2023-02-05T17:50:06.029Z,158713.84
2023-02-05T17:53:11.522Z,158726.88
2023-02-05T17:56:18.021Z,158703.41
2023-02-05T17:59:25.662Z,158742.47
2023-02-05T18:02:29.635Z,158713.84
2023-02-05T18:05:34.136Z,158702.16
2023-02-05T18:08:37.996Z,158676.16
2023-02-05T18:11:43.154Z,158677.47
2023-02-05T18:14:47.296Z,158682.69
2023-02-05T18:17:51.822Z,158674.84
2023-02-05T18:20:56.109Z,158687.84
2023-02-05T18:24:00.402Z,158674.84
2023-02-05T18:27:08.239Z,158654.00
2023-02-05T18:30:12.655Z,158648.84
2023-02-05T18:33:16.727Z,158635.81
2023-02-05T18:36:21.148Z,158642.31
2023-02-05T18:39:29.485Z,158625.41
2023-02-05T18:42:35.833Z,158628.03
2023-02-05T18:45:40.216Z,158631.94
2023-02-05T18:48:49.224Z,158620.22
2023-02-05T18:51:53.398Z,158612.44
2023-02-05T18:54:57.736Z,158595.50
2023-02-05T18:58:04.000Z,158599.41
2023-02-05T19:01:20.754Z,158596.78
2023-02-05T19:04:26.860Z,158575.97
2023-02-05T19:07:30.963Z,158557.78
2023-02-05T19:10:36.968Z,158556.47
2023-02-05T19:13:41.423Z,158549.97
2023-02-05T19:16:47.158Z,158544.75
2023-02-05T19:19:51.892Z,158544.75
2023-02-05T19:22:55.818Z,158542.19
2023-02-05T19:26:09.938Z,158529.16
2023-02-05T19:29:16.752Z,158509.56
2023-02-05T19:32:20.858Z,158500.50
2023-02-05T19:35:25.309Z,158505.66
2023-02-05T19:38:30.331Z,158509.56
2023-02-05T19:41:36.003Z,158518.69
2023-02-05T19:44:40.191Z,158508.31
2023-02-05T19:47:44.320Z,158503.09
2023-02-05T19:50:48.284Z,158510.88
2023-02-05T19:53:55.742Z,158503.09
2023-02-05T19:56:59.794Z,158487.50
2023-02-05T20:00:04.740Z,158471.91
2023-02-05T20:03:09.083Z,158475.78
2023-02-05T20:06:15.863Z,158466.69
2023-02-05T20:09:20.131Z,158458.88
2023-02-05T20:12:24.837Z,158455.00
2023-02-05T20:15:29.084Z,158435.44
2023-02-05T20:18:33.736Z,158427.66
2023-02-05T20:21:38.516Z,158438.06
2023-02-05T20:24:42.671Z,158444.56
2023-02-05T20:27:47.094Z,158445.88
2023-02-05T20:31:10.885Z,158432.84
2023-02-05T20:34:22.525Z,158430.28
2023-02-05T20:37:26.938Z,158422.47
2023-02-05T20:40:31.075Z,158412.06
2023-02-05T20:43:35.430Z,158405.56
2023-02-05T20:46:40.135Z,158395.16
2023-02-05T20:49:44.244Z,158396.47
2023-02-05T20:52:48.415Z,158401.69
2023-02-05T20:55:52.633Z,158409.47
2023-02-05T20:59:02.462Z,158396.47
2023-02-05T21:02:07.334Z,158402.94
2023-02-05T21:05:11.889Z,158396.47
2023-02-05T21:08:16.046Z,158395.16
2023-02-05T21:11:21.561Z,158396.47
2023-02-05T21:14:25.813Z,158395.16
2023-02-05T21:17:30.137Z,158402.94
2023-02-05T21:20:35.400Z,158389.94
2023-02-05T21:23:39.748Z,158357.44
2023-02-05T21:26:46.272Z,158354.88
2023-02-05T21:29:50.983Z,158337.97
2023-02-05T21:32:54.867Z,158343.16
2023-02-05T21:36:07.400Z,158328.84
2023-02-05T21:39:12.224Z,158311.94
2023-02-05T21:42:16.163Z,158301.56
2023-02-05T21:45:20.500Z,158280.78
2023-02-05T21:48:24.724Z,158287.25
2023-02-05T21:51:31.411Z,158285.97
2023-02-05T21:54:35.832Z,158263.81
2023-02-05T21:57:39.965Z,158263.81
2023-02-05T22:00:43.969Z,158279.44
2023-02-05T22:03:54.492Z,158289.88
2023-02-05T22:06:58.371Z,158284.66
2023-02-05T22:10:04.712Z,158282.09
2023-02-05T22:13:08.927Z,158276.88
2023-02-05T22:16:16.282Z,158282.09
2023-02-05T22:19:19.957Z,158256.03
2023-02-05T22:22:23.977Z,158256.03
2023-02-05T22:25:27.954Z,158256.03
2023-02-05T22:28:32.883Z,158279.44
2023-02-05T22:31:37.390Z,158315.84
2023-02-05T22:34:43.545Z,158314.56
2023-02-05T22:37:48.045Z,158293.78
2023-02-05T22:40:52.432Z,158288.56
2023-02-05T22:43:58.424Z,158278.19
2023-02-05T22:47:02.894Z,158250.81
2023-02-05T22:50:07.255Z,158228.75
2023-02-05T22:53:12.761Z,158214.44
2023-02-05T22:56:17.274Z,158211.88
2023-02-05T22:59:21.160Z,158180.66
2023-02-05T23:02:25.385Z,158197.56
2023-02-05T23:05:34.287Z,158207.97
2023-02-05T23:08:38.787Z,158223.56
2023-02-05T23:11:43.358Z,158207.97
2023-02-05T23:14:47.302Z,158188.44
2023-02-05T23:17:51.621Z,158176.75
2023-02-05T23:20:55.477Z,158158.59
2023-02-05T23:24:00.022Z,158162.50
2023-02-05T23:27:05.702Z,158145.59
2023-02-05T23:30:11.145Z,158162.50
2023-02-05T23:33:14.953Z,158159.88
2023-02-05T23:36:19.580Z,158159.88
2023-02-05T23:39:23.613Z,158159.88
2023-02-05T23:42:27.792Z,158135.19
2023-02-05T23:45:31.944Z,158118.25
2023-02-05T23:48:36.106Z,158153.38
2023-02-05T23:51:41.000Z,158165.06
2023-02-05T23:54:45.060Z,158139.06
2023-02-05T23:57:49.440Z,158110.44
